Time;durP1;ratioP1;P1;durP2;ratioP2;P2;SDS_P1;SDS_P2;PMS_P1;PMS_P2;Temp;Humidity;BMP_temperature;BMP_pressure;BME280_temperature;BME280_humidity;BME280_pressure;Samples;Min_cycle;Max_cycle;Signal;HPM_P1;HPM_P2
2022/04/20 00:01:01;;;;;;;14.13;5.10;;;14.40;69.80;;;;;;5036673;28;20466;-70
2022/04/20 00:03:27;;;;;;;12.95;5.18;;;14.40;69.80;;;;;;5036820;28;20017;-70
2022/04/20 00:05:53;;;;;;;10.68;5.10;;;14.30;69.70;;;;;;5036848;28;20128;-70
2022/04/20 00:08:19;;;;;;;13.77;5.32;;;14.30;70.20;;;;;;5037360;28;20041;-70
2022/04/20 00:10:45;;;;;;;11.43;4.80;;;14.20;70.20;;;;;;5036456;28;20033;-70
2022/04/20 00:13:11;;;;;;;13.07;4.78;;;14.30;70.00;;;;;;5036509;28;20057;-70
2022/04/20 00:15:36;;;;;;;11.13;4.63;;;14.40;69.90;;;;;;5036508;28;20029;-69
2022/04/20 00:18:02;;;;;;;11.52;5.82;;;14.40;69.70;;;;;;5018502;28;20091;-70
2022/04/20 00:20:29;;;;;;;9.20;4.75;;;14.40;69.90;;;;;;5036861;28;20033;-71
2022/04/20 00:22:55;;;;;;;11.05;4.88;;;14.40;70.00;;;;;;5018895;28;20360;-70
2022/04/20 00:25:21;;;;;;;10.73;5.20;;;14.30;70.40;;;;;;5035989;28;20022;-70
2022/04/20 00:27:46;;;;;;;10.95;5.57;;;14.30;71.00;;;;;;5018477;28;20116;-70
2022/04/20 00:30:12;;;;;;;12.93;5.63;;;14.20;71.20;;;;;;5036239;28;20053;-69
2022/04/20 00:32:39;;;;;;;13.52;5.47;;;14.20;72.10;;;;;;5036248;28;20026;-70
2022/04/20 00:35:07;;;;;;;14.00;6.10;;;14.20;71.90;;;;;;5036109;28;20110;-69
2022/04/20 00:37:34;;;;;;;20.15;6.28;;;14.20;72.20;;;;;;5036034;28;20017;-70
2022/04/20 00:40:02;;;;;;;10.90;5.65;;;14.10;72.50;;;;;;5036077;28;20037;-69
2022/04/20 00:42:28;;;;;;;11.52;6.15;;;14.10;72.70;;;;;;5036188;28;20115;-69
2022/04/20 00:44:54;;;;;;;11.00;6.13;;;14.00;72.50;;;;;;5017891;28;20517;-70
2022/04/20 00:47:22;;;;;;;10.38;5.88;;;14.00;73.10;;;;;;5036105;28;20095;-70
2022/04/20 00:49:47;;;;;;;11.90;5.55;;;13.90;73.40;;;;;;5035988;28;20373;-70
2022/04/20 00:52:14;;;;;;;9.23;5.88;;;13.90;73.50;;;;;;5018088;28;20044;-69
2022/04/20 00:54:40;;;;;;;15.27;7.43;;;13.90;74.40;;;;;;5035861;28;20025;-71
2022/04/20 00:57:06;;;;;;;11.05;6.03;;;13.90;74.50;;;;;;5035648;28;20368;-70
2022/04/20 00:59:34;;;;;;;12.88;5.95;;;13.90;74.80;;;;;;5035941;28;20037;-70
2022/04/20 01:02:00;;;;;;;11.88;5.90;;;13.90;74.80;;;;;;5035565;28;20022;-70
2022/04/20 01:04:27;;;;;;;10.70;5.68;;;13.80;75.10;;;;;;5035676;28;20109;-71
2022/04/20 01:07:00;;;;;;;11.65;5.53;;;13.80;75.00;;;;;;5035576;28;20036;-71
2022/04/20 01:09:26;;;;;;;14.07;5.75;;;13.70;75.60;;;;;;5034708;28;20032;-70
2022/04/20 01:11:52;;;;;;;16.20;6.13;;;13.80;75.30;;;;;;5035550;28;20104;-70
2022/04/20 01:14:18;;;;;;;11.30;6.18;;;13.90;75.20;;;;;;5035263;28;20391;-70
2022/04/20 01:16:43;;;;;;;12.18;6.60;;;13.80;75.10;;;;;;5035434;28;20025;-70
2022/04/20 01:19:09;;;;;;;10.35;6.20;;;13.70;75.30;;;;;;5035360;28;20383;-70
2022/04/20 01:21:35;;;;;;;12.40;6.43;;;13.60;76.00;;;;;;5035228;28;20033;-70
2022/04/20 01:24:00;;;;;;;11.50;6.25;;;13.60;76.40;;;;;;5035121;28;20028;-71
2022/04/20 01:26:28;;;;;;;12.43;5.72;;;13.70;76.30;;;;;;5035287;28;20382;-69
2022/04/20 01:28:55;;;;;;;10.52;5.68;;;13.60;76.40;;;;;;5035283;28;20102;-70
2022/04/20 01:31:21;;;;;;;11.90;5.43;;;13.60;77.30;;;;;;5035262;28;20033;-69
2022/04/20 01:33:46;;;;;;;11.88;5.88;;;13.60;77.10;;;;;;5035279;28;20036;-69
2022/04/20 01:36:12;;;;;;;12.45;5.85;;;13.60;77.20;;;;;;5017844;28;20044;-70
2022/04/20 01:38:39;;;;;;;7.95;4.85;;;13.60;77.50;;;;;;5034865;28;20032;-69
2022/04/20 01:41:05;;;;;;;8.18;4.97;;;13.50;77.60;;;;;;5035016;28;20096;-69
2022/04/20 01:43:32;;;;;;;11.77;5.90;;;13.40;79.20;;;;;;5034786;28;20026;-70
2022/04/20 01:45:57;;;;;;;13.98;6.70;;;13.30;78.30;;;;;;5034745;28;20084;-69
2022/04/20 01:48:23;;;;;;;10.40;6.72;;;13.30;79.30;;;;;;5034746;28;20037;-69
2022/04/20 01:53:34;;;;;;;12.88;6.65;;;13.20;80.20;;;;;;5034923;28;20037;-69
2022/04/20 01:56:00;;;;;;;11.63;6.68;;;13.20;80.20;;;;;;5034492;28;20033;-70
2022/04/20 01:58:27;;;;;;;13.18;6.20;;;13.10;80.40;;;;;;5034543;28;20104;-70
2022/04/20 02:00:52;;;;;;;17.35;6.95;;;13.10;81.40;;;;;;5034397;28;20467;-70
2022/04/20 02:03:18;;;;;;;10.95;5.72;;;13.00;80.90;;;;;;5034376;28;20032;-69
2022/04/20 02:05:44;;;;;;;9.75;5.40;;;13.10;80.90;;;;;;5034679;28;20397;-70
2022/04/20 02:08:10;;;;;;;12.13;5.60;;;13.00;81.70;;;;;;5034282;28;20100;-71
2022/04/20 02:10:36;;;;;;;9.50;6.20;;;13.00;81.30;;;;;;5034530;28;20034;-69
2022/04/20 02:13:02;;;;;;;10.93;5.28;;;13.00;81.50;;;;;;5034587;28;20040;-69
2022/04/20 02:15:28;;;;;;;9.77;5.28;;;13.00;81.70;;;;;;5034332;28;20017;-70
2022/04/20 02:17:54;;;;;;;11.98;5.13;;;13.10;81.80;;;;;;5034250;28;20453;-70
2022/04/20 02:20:20;;;;;;;9.60;5.18;;;13.00;82.00;;;;;;5034079;28;20462;-70
2022/04/20 02:22:46;;;;;;;14.98;5.40;;;13.00;82.40;;;;;;5034099;28;20048;-69
2022/04/20 02:25:12;;;;;;;12.40;5.25;;;13.00;82.50;;;;;;5033935;28;20474;-71
2022/04/20 02:27:38;;;;;;;8.98;4.93;;;13.00;83.00;;;;;;5034446;28;20527;-70
2022/04/20 02:30:05;;;;;;;10.25;4.88;;;13.00;83.50;;;;;;5034170;28;20044;-69
2022/04/20 02:32:30;;;;;;;10.30;5.30;;;13.00;83.20;;;;;;5034081;28;20033;-71
2022/04/20 02:34:56;;;;;;;10.57;5.00;;;13.00;83.10;;;;;;5034416;28;20087;-70
2022/04/20 02:37:23;;;;;;;8.02;4.65;;;13.00;83.20;;;;;;5034298;28;20108;-69
2022/04/20 02:39:49;;;;;;;10.43;5.05;;;12.90;83.60;;;;;;5033912;28;20057;-69
2022/04/20 02:42:16;;;;;;;12.40;6.03;;;13.00;83.70;;;;;;5034319;28;20068;-70
2022/04/20 02:44:43;;;;;;;9.25;4.50;;;13.00;84.10;;;;;;5037321;28;20064;-70
2022/04/20 02:47:09;;;;;;;11.13;4.90;;;13.00;84.40;;;;;;5041846;28;20089;-70
2022/04/20 02:49:35;;;;;;;10.35;5.15;;;12.90;84.10;;;;;;5041916;28;20041;-71
2022/04/20 02:52:01;;;;;;;9.20;4.85;;;12.90;84.40;;;;;;5034609;28;20120;-70
2022/04/20 02:54:27;;;;;;;14.10;4.78;;;12.90;85.40;;;;;;5033701;28;20088;-71
2022/04/20 02:56:53;;;;;;;11.35;4.30;;;12.90;85.40;;;;;;5033675;28;20041;-70
2022/04/20 02:59:19;;;;;;;10.00;4.80;;;12.90;85.50;;;;;;5033931;28;20025;-70
2022/04/20 03:01:45;;;;;;;11.30;5.15;;;12.90;85.30;;;;;;5036422;28;20036;-70
2022/04/20 03:04:11;;;;;;;7.95;4.45;;;12.90;85.50;;;;;;5035776;28;20026;-70
2022/04/20 03:06:37;;;;;;;10.77;4.72;;;12.90;85.60;;;;;;5033392;28;20363;-70
2022/04/20 03:09:03;;;;;;;10.13;5.15;;;12.90;86.30;;;;;;5015725;28;20112;-70
2022/04/20 03:11:29;;;;;;;10.23;4.25;;;12.90;86.20;;;;;;5033625;28;20135;-70
2022/04/20 03:13:56;;;;;;;12.25;5.60;;;12.90;86.00;;;;;;5033419;28;20064;-71
2022/04/20 03:16:22;;;;;;;10.45;4.72;;;12.90;86.10;;;;;;5033553;28;20040;-70
2022/04/20 03:18:48;;;;;;;11.02;4.60;;;12.90;86.30;;;;;;5033316;28;20025;-70
2022/04/20 03:21:14;;;;;;;8.93;5.35;;;12.90;86.30;;;;;;5033447;28;20071;-70
2022/04/20 03:23:41;;;;;;;8.55;4.38;;;12.90;86.30;;;;;;5033515;28;20026;-70
2022/04/20 03:26:08;;;;;;;9.23;4.38;;;12.90;86.10;;;;;;5033175;28;20033;-70
2022/04/20 03:28:33;;;;;;;10.70;4.95;;;12.90;86.20;;;;;;5033142;28;20096;-70
2022/04/20 03:31:00;;;;;;;9.05;4.63;;;12.90;86.40;;;;;;5033455;28;20466;-69
2022/04/20 03:33:26;;;;;;;12.02;4.60;;;12.90;86.40;;;;;;5017934;28;20112;-69
2022/04/20 03:35:52;;;;;;;9.05;4.80;;;12.90;86.60;;;;;;5037499;28;20489;-70
2022/04/20 03:38:18;;;;;;;8.30;4.82;;;12.90;86.80;;;;;;5037228;28;20025;-71
2022/04/20 03:40:45;;;;;;;9.45;4.70;;;12.80;86.70;;;;;;5037198;28;20033;-70
2022/04/20 03:43:10;;;;;;;10.32;5.13;;;12.90;86.90;;;;;;5036962;28;20049;-71
2022/04/20 03:45:36;;;;;;;9.68;4.57;;;12.90;87.10;;;;;;5037019;28;20092;-70
2022/04/20 03:48:04;;;;;;;9.85;5.15;;;12.90;86.80;;;;;;5037421;28;20056;-71
2022/04/20 03:50:30;;;;;;;11.63;4.90;;;12.90;86.40;;;;;;5036825;28;20120;-71
2022/04/20 03:52:56;;;;;;;12.50;5.45;;;12.90;86.80;;;;;;5037122;28;20036;-70
2022/04/20 03:55:22;;;;;;;10.85;5.40;;;12.90;86.80;;;;;;5036951;28;20025;-69
2022/04/20 03:57:48;;;;;;;11.07;5.32;;;12.90;86.70;;;;;;5036671;28;20048;-71
2022/04/20 04:00:14;;;;;;;9.00;5.20;;;12.90;86.60;;;;;;5036788;28;20025;-71
2022/04/20 04:02:39;;;;;;;13.95;5.57;;;13.00;86.40;;;;;;5036932;28;20064;-70
2022/04/20 04:05:05;;;;;;;14.13;6.03;;;13.00;86.10;;;;;;5036724;28;20025;-70
2022/04/20 04:07:31;;;;;;;9.63;5.50;;;13.00;86.20;;;;;;5036811;28;20036;-71
2022/04/20 04:09:57;;;;;;;13.95;5.78;;;13.00;86.10;;;;;;5036418;28;20108;-70
2022/04/20 04:12:23;;;;;;;13.40;5.82;;;13.10;85.50;;;;;;5036409;28;20091;-69
2022/04/20 04:14:49;;;;;;;12.25;5.75;;;13.10;84.90;;;;;;5036236;28;20570;-70
2022/04/20 04:17:15;;;;;;;13.05;6.22;;;13.20;84.70;;;;;;5018800;28;20108;-70
2022/04/20 04:19:41;;;;;;;12.35;5.93;;;13.20;84.40;;;;;;5036384;28;20107;-69
2022/04/20 04:22:06;;;;;;;14.70;7.15;;;13.30;84.10;;;;;;5036514;28;20105;-70
2022/04/20 04:24:35;;;;;;;11.73;6.80;;;13.20;83.60;;;;;;5036271;28;20021;-70
2022/04/20 04:27:02;;;;;;;26.90;7.40;;;13.20;84.40;;;;;;5036144;28;20113;-70
2022/04/20 04:29:28;;;;;;;16.13;6.63;;;13.10;83.80;;;;;;5036147;28;20494;-70
2022/04/20 04:31:55;;;;;;;16.45;6.80;;;13.10;83.60;;;;;;5036136;28;20060;-70
2022/04/20 04:34:20;;;;;;;11.02;6.25;;;13.10;83.50;;;;;;5036306;28;20025;-70
2022/04/20 04:36:46;;;;;;;11.25;6.38;;;13.10;83.60;;;;;;5036423;28;20060;-68
2022/04/20 04:39:14;;;;;;;12.82;6.25;;;13.10;83.50;;;;;;5036175;28;20018;-71
2022/04/20 04:41:42;;;;;;;12.55;6.18;;;13.10;83.60;;;;;;5036114;28;20052;-70
2022/04/20 04:44:08;;;;;;;12.18;6.10;;;13.20;83.30;;;;;;5034611;28;20479;-70
2022/04/20 04:49:18;;;;;;;13.05;6.40;;;13.20;83.10;;;;;;5036230;28;20482;-70
2022/04/20 04:51:43;;;;;;;14.82;6.53;;;13.30;82.20;;;;;;5036012;28;20069;-70
2022/04/20 04:54:09;;;;;;;20.02;7.28;;;13.30;81.60;;;;;;5035771;28;20100;-71
2022/04/20 04:56:35;;;;;;;12.00;6.13;;;13.40;81.30;;;;;;5035999;28;20037;-70
2022/04/20 04:59:01;;;;;;;17.48;6.47;;;13.40;81.30;;;;;;5018025;28;20049;-69
2022/04/20 05:01:27;;;;;;;14.07;6.00;;;13.40;81.10;;;;;;5035823;28;20537;-69
2022/04/20 05:03:55;;;;;;;13.55;6.63;;;13.40;81.20;;;;;;5035709;28;20160;-71
2022/04/20 05:06:21;;;;;;;13.10;6.57;;;13.40;80.80;;;;;;5017995;28;20030;-70
2022/04/20 05:08:47;;;;;;;11.52;6.10;;;13.50;81.00;;;;;;5035865;28;20029;-70
2022/04/20 05:11:13;;;;;;;11.05;5.80;;;13.50;80.70;;;;;;5035650;28;20033;-70
2022/04/20 05:13:38;;;;;;;13.10;5.85;;;13.50;80.40;;;;;;5035578;28;20029;-71
2022/04/20 05:16:04;;;;;;;10.85;5.95;;;13.50;80.50;;;;;;5035454;28;20021;-70
2022/04/20 05:18:30;;;;;;;11.88;6.45;;;13.60;80.40;;;;;;5035689;28;20087;-69
2022/04/20 05:20:56;;;;;;;12.80;6.47;;;13.70;80.30;;;;;;5035888;28;20474;-72
2022/04/20 05:23:21;;;;;;;17.13;6.72;;;13.70;80.00;;;;;;5035659;28;20053;-69
2022/04/20 05:25:48;;;;;;;19.80;7.20;;;13.80;79.80;;;;;;5035465;28;20411;-71
2022/04/20 05:28:14;;;;;;;12.32;6.28;;;13.90;79.60;;;;;;5018191;28;20010;-69
2022/04/20 05:30:39;;;;;;;17.50;6.07;;;14.10;79.10;;;;;;5035715;28;20033;-70
2022/04/20 05:33:05;;;;;;;11.93;5.90;;;14.20;78.50;;;;;;5035418;28;20072;-70
2022/04/20 05:35:31;;;;;;;11.55;5.50;;;14.20;78.00;;;;;;5018094;28;20403;-71
2022/04/20 05:43:25;;;;;;;;;;;14.20;78.00;;;;;;5050440;28;20041;-70
2022/04/20 05:45:51;;;;;;;12.00;5.53;;;14.30;78.90;;;;;;5045929;28;19921;-69
2022/04/20 05:48:17;;;;;;;11.32;5.82;;;14.50;77.70;;;;;;5037820;28;20079;-71
2022/04/20 05:50:43;;;;;;;15.35;6.15;;;14.60;77.00;;;;;;5017686;28;20091;-71
2022/04/20 05:53:09;;;;;;;15.70;6.25;;;14.70;76.00;;;;;;5035062;28;20049;-70
2022/04/20 05:55:35;;;;;;;12.43;5.30;;;14.90;75.80;;;;;;5034475;28;20029;-70
2022/04/20 05:58:01;;;;;;;10.98;5.65;;;15.10;75.10;;;;;;5034911;28;20033;-71
2022/04/20 06:00:27;;;;;;;12.10;5.53;;;15.20;73.80;;;;;;5034907;28;20030;-71
2022/04/20 06:02:54;;;;;;;13.95;5.68;;;15.30;73.00;;;;;;5034045;28;20097;-71
2022/04/20 06:05:21;;;;;;;13.45;5.50;;;15.50;72.60;;;;;;5034394;28;20155;-71
2022/04/20 06:07:47;;;;;;;11.95;4.57;;;15.80;71.90;;;;;;5034637;28;20030;-70
2022/04/20 06:10:13;;;;;;;12.73;4.72;;;15.90;70.10;;;;;;5034659;28;20109;-70
2022/04/20 06:12:38;;;;;;;14.57;6.05;;;16.00;69.20;;;;;;5034567;28;20072;-71
2022/04/20 06:15:06;;;;;;;20.02;5.43;;;16.20;69.10;;;;;;5035120;28;20439;-71
2022/04/20 06:17:32;;;;;;;16.38;5.75;;;16.50;68.10;;;;;;5038094;28;20037;-70
2022/04/20 06:19:58;;;;;;;17.05;5.43;;;16.70;67.30;;;;;;5019212;28;20033;-71
2022/04/20 06:22:24;;;;;;;14.38;4.82;;;16.80;66.40;;;;;;5016405;28;20036;-68
2022/04/20 06:24:49;;;;;;;19.15;5.05;;;16.80;66.60;;;;;;5016438;28;20029;-70
2022/04/20 06:27:16;;;;;;;11.55;4.68;;;16.70;66.40;;;;;;5034377;28;20097;-71
2022/04/20 06:29:42;;;;;;;20.13;7.25;;;16.60;65.90;;;;;;5016404;28;20022;-70
2022/04/20 06:32:08;;;;;;;24.95;6.13;;;16.60;66.10;;;;;;5016384;28;20061;-71
2022/04/20 06:34:34;;;;;;;35.08;6.63;;;16.60;66.10;;;;;;5034084;28;20505;-71
2022/04/20 06:37:00;;;;;;;27.52;6.70;;;16.80;65.90;;;;;;5016375;28;20497;-71
2022/04/20 06:39:26;;;;;;;16.98;5.22;;;16.80;65.60;;;;;;5034192;28;20025;-71
2022/04/20 06:41:52;;;;;;;12.70;4.97;;;16.80;65.40;;;;;;5034081;28;20124;-70
2022/04/20 06:44:18;;;;;;;42.13;6.07;;;16.80;65.00;;;;;;5033526;28;20099;-70
2022/04/20 06:46:45;;;;;;;41.50;6.72;;;16.70;64.90;;;;;;5033741;28;20034;-71
2022/04/20 06:49:11;;;;;;;22.90;5.25;;;16.60;65.00;;;;;;5033783;28;20111;-70
2022/04/20 06:59:50;;;;;;;;;;;16.80;64.50;;;;;;5034646;28;20500;-69
2022/04/20 07:02:16;;;;;;;12.00;4.82;;;17.00;64.10;;;;;;5016166;28;19908;-71
2022/04/20 07:04:43;;;;;;;13.27;5.10;;;17.10;64.20;;;;;;5017006;28;20049;-69
2022/04/20 07:07:09;;;;;;;10.85;4.55;;;17.10;63.80;;;;;;5033196;28;20022;-71
2022/04/20 07:09:34;;;;;;;11.77;4.60;;;17.10;64.50;;;;;;5033075;28;20025;-70
2022/04/20 07:12:00;;;;;;;18.75;5.38;;;17.10;64.40;;;;;;5033257;28;20025;-71
2022/04/20 07:14:26;;;;;;;11.82;4.80;;;17.40;64.20;;;;;;5033427;28;20021;-70
2022/04/20 07:16:52;;;;;;;19.08;5.80;;;17.60;64.60;;;;;;5015929;28;20025;-70
2022/04/20 07:19:20;;;;;;;12.38;4.90;;;17.90;63.00;;;;;;5033541;28;20028;-70
2022/04/20 07:21:46;;;;;;;11.20;5.20;;;18.10;62.10;;;;;;5034343;28;20022;-70
2022/04/20 07:24:11;;;;;;;14.68;4.70;;;18.30;62.50;;;;;;5034650;28;20032;-73
2022/04/20 07:26:37;;;;;;;13.68;4.57;;;18.40;62.10;;;;;;5034054;28;20032;-69
2022/04/20 07:29:04;;;;;;;20.35;4.55;;;18.50;61.50;;;;;;5033966;28;20029;-71
2022/04/20 07:31:30;;;;;;;11.93;4.43;;;18.70;60.90;;;;;;5033896;28;20267;-70
2022/04/20 07:33:56;;;;;;;10.55;3.92;;;18.80;61.20;;;;;;5033512;28;20053;-70
2022/04/20 07:36:22;;;;;;;11.75;4.22;;;18.90;61.10;;;;;;5033244;28;20474;-71
2022/04/20 07:38:49;;;;;;;18.58;4.30;;;19.10;60.60;;;;;;5015980;28;20041;-71
2022/04/20 07:41:15;;;;;;;17.55;4.75;;;19.10;60.50;;;;;;5033748;28;20152;-70
2022/04/20 07:43:41;;;;;;;11.55;4.20;;;19.20;60.20;;;;;;5015988;28;20485;-71
2022/04/20 07:46:07;;;;;;;15.02;4.18;;;19.20;60.00;;;;;;5033249;28;20116;-71
2022/04/20 07:48:33;;;;;;;33.53;5.88;;;19.30;59.80;;;;;;5034091;28;20032;-68
2022/04/20 07:51:00;;;;;;;17.95;4.63;;;19.40;59.50;;;;;;5015837;28;20044;-70
2022/04/20 07:53:27;;;;;;;12.30;3.92;;;19.50;59.30;;;;;;5015793;28;20022;-72
2022/04/20 07:55:54;;;;;;;10.52;3.90;;;19.60;58.60;;;;;;5048541;28;20589;-72
2022/04/20 07:58:21;;;;;;;16.13;4.07;;;19.70;57.90;;;;;;5033152;28;20033;-71
2022/04/20 08:00:49;;;;;;;22.60;4.78;;;19.70;57.00;;;;;;5033439;28;20085;-69
2022/04/20 08:03:18;;;;;;;36.45;6.75;;;19.60;56.40;;;;;;5033308;28;20017;-70
2022/04/20 08:05:50;;;;;;;19.88;4.72;;;19.30;56.50;;;;;;5032952;28;20041;-70
2022/04/20 08:08:18;;;;;;;10.98;3.35;;;19.10;58.10;;;;;;5033577;28;20036;-70
2022/04/20 08:10:44;;;;;;;16.90;4.50;;;19.00;56.20;;;;;;5016223;28;20041;-71
2022/04/20 08:15:55;;;;;;;16.00;4.38;;;18.80;57.60;;;;;;5033546;28;20107;-70
2022/04/20 08:18:21;;;;;;;14.07;3.70;;;18.70;57.10;;;;;;5016502;28;20048;-70
2022/04/20 08:20:48;;;;;;;24.83;4.65;;;18.50;57.60;;;;;;5037190;28;20025;-70
2022/04/20 08:23:15;;;;;;;14.93;3.70;;;18.40;57.10;;;;;;5037153;28;20105;-71
2022/04/20 08:25:41;;;;;;;44.40;8.05;;;18.40;57.60;;;;;;5037123;28;20026;-70
2022/04/20 08:28:08;;;;;;;56.05;7.03;;;18.30;57.80;;;;;;5036941;28;20096;-71
2022/04/20 08:30:36;;;;;;;23.70;4.22;;;18.30;56.90;;;;;;5037132;28;20025;-70
2022/04/20 08:33:06;;;;;;;13.52;3.90;;;18.30;57.60;;;;;;5037706;28;20560;-71
2022/04/20 08:35:32;;;;;;;41.33;6.97;;;18.30;56.90;;;;;;5039123;28;20021;-70
2022/04/20 08:37:58;;;;;;;29.58;5.43;;;18.30;57.10;;;;;;5043971;28;20033;-71
2022/04/20 08:40:25;;;;;;;7.88;3.00;;;18.40;56.80;;;;;;5031211;28;20176;-70
2022/04/20 08:42:52;;;;;;;15.23;4.15;;;18.60;57.10;;;;;;5039938;28;20206;-70
2022/04/20 08:45:22;;;;;;;8.07;3.33;;;18.60;56.50;;;;;;5036586;28;20045;-69
2022/04/20 08:47:50;;;;;;;14.98;3.45;;;18.70;54.80;;;;;;5035840;28;20420;-70
2022/04/20 08:50:15;;;;;;;20.73;4.45;;;18.80;56.40;;;;;;5035546;28;20030;-70
2022/04/20 08:52:43;;;;;;;14.40;4.65;;;19.00;56.20;;;;;;5018183;28;20021;-70
2022/04/20 08:55:11;;;;;;;10.23;3.45;;;19.20;56.10;;;;;;5036125;28;20593;-70
2022/04/20 08:57:38;;;;;;;11.02;4.32;;;19.40;56.00;;;;;;5036139;28;20021;-70
2022/04/20 09:00:09;;;;;;;12.90;3.55;;;19.50;55.30;;;;;;5035868;28;20053;-71
2022/04/20 09:02:36;;;;;;;53.55;7.07;;;19.70;54.40;;;;;;5035777;28;20025;-70
2022/04/20 09:05:03;;;;;;;15.15;3.95;;;19.80;54.10;;;;;;5035697;28;20021;-71
2022/04/20 09:07:31;;;;;;;18.27;4.45;;;19.90;53.80;;;;;;5018298;28;20064;-70
2022/04/20 09:09:57;;;;;;;15.55;3.88;;;20.00;54.00;;;;;;5035911;28;20056;-72
2022/04/20 09:12:23;;;;;;;12.60;4.30;;;20.20;53.80;;;;;;5017820;28;20025;-70
2022/04/20 09:14:50;;;;;;;8.48;3.20;;;20.30;53.30;;;;;;5035614;28;20401;-69
2022/04/20 09:17:19;;;;;;;18.50;4.82;;;20.50;53.60;;;;;;5035500;28;20032;-70
2022/04/20 09:19:51;;;;;;;16.38;3.60;;;20.50;53.50;;;;;;5035468;28;20459;-70
2022/04/20 09:22:23;;;;;;;12.25;3.78;;;20.60;51.90;;;;;;5035453;28;20026;-70
2022/04/20 09:25:07;;;;;;;11.77;3.38;;;20.60;53.20;;;;;;5035553;28;20082;-69
2022/04/20 09:27:39;;;;;;;8.70;3.92;;;20.60;52.70;;;;;;5035393;28;20017;-70
2022/04/20 09:30:14;;;;;;;11.75;3.28;;;20.60;52.60;;;;;;5016679;28;20427;-70
2022/04/20 09:32:44;;;;;;;11.70;3.20;;;20.60;52.80;;;;;;5017779;28;20042;-71
2022/04/20 09:35:12;;;;;;;9.70;3.42;;;20.60;52.20;;;;;;5035003;28;20120;-71
2022/04/20 09:37:39;;;;;;;11.65;3.08;;;20.50;51.80;;;;;;5017619;28;20479;-71
2022/04/20 09:40:13;;;;;;;15.52;3.50;;;20.50;52.00;;;;;;5035387;28;20056;-70
2022/04/20 09:43:06;;;;;;;15.07;3.60;;;20.60;51.40;;;;;;5035290;28;20017;-70
2022/04/20 09:45:36;;;;;;;13.52;3.45;;;20.60;51.60;;;;;;5046465;28;20042;-71
2022/04/20 09:51:14;;;;;;;10.52;3.63;;;20.40;53.10;;;;;;5015668;28;20196;-69
2022/04/20 09:53:42;;;;;;;12.00;3.17;;;20.40;52.00;;;;;;5014345;28;20042;-70
2022/04/20 09:56:27;;;;;;;8.93;3.10;;;20.40;53.60;;;;;;5015363;28;20029;-70
2022/04/20 09:59:01;;;;;;;10.73;3.22;;;20.50;53.20;;;;;;5015352;28;20478;-71
2022/04/20 10:01:34;;;;;;;9.75;2.92;;;20.50;53.20;;;;;;5015371;28;20109;-71
2022/04/20 10:04:02;;;;;;;9.52;2.80;;;20.60;52.90;;;;;;5015024;28;20081;-70
2022/04/20 10:06:28;;;;;;;10.13;3.47;;;20.70;53.00;;;;;;5015029;28;20018;-72
2022/04/20 10:08:55;;;;;;;11.88;3.13;;;20.60;52.70;;;;;;5015256;28;20037;-71
2022/04/20 10:11:22;;;;;;;8.38;3.08;;;20.60;51.60;;;;;;5014706;28;20034;-69
2022/04/20 10:16:05;;;;;;;17.42;3.38;;;20.60;53.00;;;;;;5015236;28;20022;-70
2022/04/20 10:16:39;;;;;;;8.13;2.88;;;20.50;53.20;;;;;;5014451;28;20060;-71
2022/04/20 10:19:13;;;;;;;10.68;3.17;;;20.50;52.70;;;;;;5014767;28;20034;-70
2022/04/20 10:21:47;;;;;;;10.57;3.45;;;20.50;52.70;;;;;;5015182;28;20040;-70
2022/04/20 10:24:18;;;;;;;9.02;3.63;;;20.60;52.60;;;;;;5014430;28;20029;-71
2022/04/20 10:26:46;;;;;;;9.00;3.22;;;20.70;52.60;;;;;;5046674;28;20038;-70
2022/04/20 10:29:32;;;;;;;13.48;3.92;;;20.80;51.30;;;;;;5015019;28;20088;-71
2022/04/20 10:32:09;;;;;;;13.65;3.97;;;20.90;52.70;;;;;;5014282;28;20553;-70
2022/04/20 10:34:37;;;;;;;10.05;3.20;;;21.00;52.40;;;;;;5014647;28;20456;-71
2022/04/20 10:37:09;;;;;;;10.45;3.83;;;21.10;52.50;;;;;;5014541;28;20105;-70
2022/04/20 10:39:38;;;;;;;11.97;4.33;;;21.10;51.50;;;;;;5014519;28;20088;-71
2022/04/20 10:42:17;;;;;;;11.00;3.58;;;21.10;52.50;;;;;;5014166;28;20048;-70
2022/04/20 10:45:01;;;;;;;6.10;3.70;;;21.20;51.80;;;;;;5017097;28;20056;-71
2022/04/20 10:47:42;;;;;;;10.38;3.35;;;21.20;52.80;;;;;;5034362;28;20025;-71
2022/04/20 10:50:22;;;;;;;10.88;3.75;;;21.30;51.90;;;;;;5034064;28;20068;-70
2022/04/20 10:53:02;;;;;;;23.95;4.72;;;21.30;52.10;;;;;;5034257;28;20068;-71
2022/04/20 10:55:31;;;;;;;10.00;4.10;;;21.40;52.10;;;;;;5016545;28;20032;-71
2022/04/20 10:58:02;;;;;;;10.60;3.88;;;21.40;51.90;;;;;;5034172;28;20352;-71
2022/04/20 11:00:36;;;;;;;12.50;4.13;;;21.40;52.10;;;;;;5034444;28;20364;-70
2022/04/20 11:03:06;;;;;;;11.65;3.60;;;21.40;51.20;;;;;;5034419;28;20030;-72
2022/04/20 11:05:48;;;;;;;10.55;3.63;;;21.40;51.70;;;;;;5016306;28;20036;-71
2022/04/20 11:08:17;;;;;;;9.15;3.30;;;21.40;51.90;;;;;;5033930;28;20025;-71
2022/04/20 11:18:38;;;;;;;14.00;3.55;;;21.50;51.80;;;;;;5033613;28;20034;-70
2022/04/20 11:19:14;;;;;;;10.35;3.50;;;21.70;51.10;;;;;;5034207;28;20029;-70
2022/04/20 11:21:54;;;;;;;11.27;3.67;;;21.80;51.90;;;;;;5016015;28;20364;-70
2022/04/20 11:24:30;;;;;;;12.23;3.10;;;21.80;51.40;;;;;;5016167;28;20116;-70
2022/04/20 11:26:56;;;;;;;12.05;3.22;;;21.80;51.30;;;;;;5016207;28;20474;-71
2022/04/20 11:29:27;;;;;;;9.60;2.88;;;21.80;50.80;;;;;;5034519;28;20026;-72
2022/04/20 11:31:59;;;;;;;11.18;3.35;;;21.90;50.10;;;;;;5017839;28;20126;-71
2022/04/20 11:34:27;;;;;;;9.30;3.60;;;21.90;49.90;;;;;;5037199;28;20025;-72
2022/04/20 11:36:57;;;;;;;8.07;3.33;;;22.00;50.80;;;;;;5049763;28;20025;-70
2022/04/20 11:39:25;;;;;;;9.10;3.05;;;22.10;50.60;;;;;;5052622;28;20041;-71
2022/04/20 11:41:54;;;;;;;10.48;2.83;;;22.10;50.20;;;;;;5041815;28;20022;-71
2022/04/20 11:44:22;;;;;;;10.23;3.45;;;22.10;49.80;;;;;;5033804;28;20028;-71
2022/04/20 11:46:49;;;;;;;8.80;2.75;;;22.20;49.90;;;;;;5034312;28;20191;-72
2022/04/20 11:49:15;;;;;;;6.85;2.70;;;22.20;50.10;;;;;;5033744;28;20029;-69
2022/04/20 11:51:46;;;;;;;8.90;3.42;;;22.30;50.20;;;;;;5033525;28;20038;-70
2022/04/20 11:54:20;;;;;;;9.05;3.05;;;22.30;50.10;;;;;;5035571;28;20654;-71
2022/04/20 11:56:46;;;;;;;6.65;2.50;;;22.40;50.20;;;;;;5037076;28;20029;-70
2022/04/20 11:59:11;;;;;;;8.45;3.13;;;22.40;49.70;;;;;;5019189;28;20033;-70
2022/04/20 12:01:38;;;;;;;9.43;3.10;;;22.40;49.70;;;;;;5037075;28;20056;-70
2022/04/20 12:04:16;;;;;;;6.70;3.15;;;22.50;49.80;;;;;;5019243;28;20033;-71
2022/04/20 12:06:55;;;;;;;9.50;3.03;;;22.50;49.20;;;;;;5036870;28;20121;-71
2022/04/20 12:09:26;;;;;;;13.65;3.22;;;22.60;48.60;;;;;;5037291;28;20463;-71
2022/04/20 12:11:54;;;;;;;9.65;3.10;;;22.70;49.20;;;;;;5019081;28;20056;-71
2022/04/20 12:14:21;;;;;;;5.55;2.85;;;22.80;48.80;;;;;;5037206;28;20029;-71
2022/04/20 12:16:47;;;;;;;6.22;2.50;;;22.80;48.90;;;;;;5037230;28;20486;-70
2022/04/20 12:19:13;;;;;;;6.60;2.90;;;22.80;49.10;;;;;;5036911;28;20049;-71
2022/04/20 12:21:44;;;;;;;11.48;3.03;;;22.80;49.10;;;;;;5037026;28;20102;-70
2022/04/20 12:24:27;;;;;;;10.50;3.30;;;22.90;48.40;;;;;;5036949;28;20108;-70
2022/04/20 12:26:55;;;;;;;7.50;2.95;;;23.00;48.10;;;;;;5019245;28;20067;-71
2022/04/20 12:29:24;;;;;;;17.08;3.85;;;23.00;48.60;;;;;;5002441;28;20428;-71
2022/04/20 12:31:51;;;;;;;12.20;3.40;;;23.10;48.80;;;;;;5036701;28;20060;-72
2022/04/20 12:34:19;;;;;;;7.03;2.60;;;23.20;48.50;;;;;;5035762;28;20108;-71
2022/04/20 12:36:54;;;;;;;9.70;3.30;;;23.20;48.50;;;;;;5036548;28;20029;-70
2022/04/20 12:39:27;;;;;;;11.32;3.15;;;23.30;47.80;;;;;;5036794;28;20032;-71
2022/04/20 12:41:58;;;;;;;9.02;3.13;;;23.30;48.30;;;;;;5036755;28;20425;-70
2022/04/20 12:44:35;;;;;;;8.75;3.13;;;23.40;48.10;;;;;;5035854;28;20053;-71
2022/04/20 12:47:16;;;;;;;9.57;2.97;;;23.40;47.70;;;;;;5036229;28;20385;-70
2022/04/20 12:49:42;;;;;;;8.50;2.67;;;23.40;47.60;;;;;;5036388;28;20467;-69
2022/04/20 12:52:13;;;;;;;11.98;2.85;;;23.40;48.00;;;;;;5036408;28;20064;-72
2022/04/20 12:54:53;;;;;;;6.07;2.70;;;23.40;47.90;;;;;;5035952;28;20022;-71
2022/04/20 13:03:03;;;;;;;10.40;2.75;;;23.40;47.20;;;;;;5036134;28;20187;-71
2022/04/20 13:05:35;;;;;;;7.70;2.58;;;23.40;46.50;;;;;;5034510;28;20021;-72
2022/04/20 13:08:02;;;;;;;12.43;2.72;;;23.50;46.30;;;;;;5035808;28;20124;-71
2022/04/20 13:10:34;;;;;;;11.15;3.28;;;23.50;47.20;;;;;;5018065;28;20194;-71
2022/04/20 13:13:00;;;;;;;12.48;2.97;;;23.70;46.80;;;;;;5035303;28;20022;-72
2022/04/20 13:15:27;;;;;;;8.43;2.92;;;23.80;46.70;;;;;;5035500;28;20037;-71
2022/04/20 13:17:52;;;;;;;9.57;2.97;;;23.90;46.50;;;;;;5018082;28;20029;-72
2022/04/20 13:20:21;;;;;;;7.47;2.72;;;23.80;46.70;;;;;;5035469;28;20019;-71